sensor_id;sensor_type;location;lat;lon;timestamp;P1;durP1;ratioP1;P2;durP2;ratioP2
38222;SDS011;24024;51.186;6.458;2023-07-29T00:01:58;6.82;;;4.10;;
38222;SDS011;24024;51.186;6.458;2023-07-29T00:04:25;4.85;;;2.28;;
38222;SDS011;24024;51.186;6.458;2023-07-29T00:06:52;5.53;;;2.38;;
38222;SDS011;24024;51.186;6.458;2023-07-29T00:09:19;3.33;;;2.03;;
38222;SDS011;24024;51.186;6.458;2023-07-29T00:11:46;4.60;;;2.10;;
38222;SDS011;24024;51.186;6.458;2023-07-29T00:14:15;3.70;;;2.22;;
38222;SDS011;24024;51.186;6.458;2023-07-29T00:16:41;4.20;;;1.80;;
38222;SDS011;24024;51.186;6.458;2023-07-29T00:19:11;5.93;;;1.75;;
38222;SDS011;24024;51.186;6.458;2023-07-29T00:21:38;4.35;;;1.92;;
38222;SDS011;24024;51.186;6.458;2023-07-29T00:24:05;3.50;;;1.55;;
38222;SDS011;24024;51.186;6.458;2023-07-29T00:26:32;3.75;;;1.67;;
38222;SDS011;24024;51.186;6.458;2023-07-29T00:29:02;2.58;;;1.60;;
38222;SDS011;24024;51.186;6.458;2023-07-29T00:31:29;2.97;;;1.50;;
38222;SDS011;24024;51.186;6.458;2023-07-29T00:33:55;2.30;;;1.27;;
38222;SDS011;24024;51.186;6.458;2023-07-29T00:36:24;3.33;;;1.40;;
38222;SDS011;24024;51.186;6.458;2023-07-29T00:38:51;3.47;;;1.70;;
38222;SDS011;24024;51.186;6.458;2023-07-29T00:41:20;2.65;;;1.58;;
38222;SDS011;24024;51.186;6.458;2023-07-29T00:43:47;4.10;;;1.65;;
38222;SDS011;24024;51.186;6.458;2023-07-29T00:46:16;3.50;;;1.70;;
38222;SDS011;24024;51.186;6.458;2023-07-29T00:48:44;3.40;;;1.63;;
38222;SDS011;24024;51.186;6.458;2023-07-29T00:51:11;4.55;;;1.70;;
38222;SDS011;24024;51.186;6.458;2023-07-29T00:53:40;4.57;;;1.80;;
38222;SDS011;24024;51.186;6.458;2023-07-29T00:56:07;5.03;;;1.88;;
38222;SDS011;24024;51.186;6.458;2023-07-29T00:58:34;6.68;;;1.77;;
38222;SDS011;24024;51.186;6.458;2023-07-29T01:01:01;5.05;;;1.70;;
38222;SDS011;24024;51.186;6.458;2023-07-29T01:03:31;4.97;;;1.92;;
38222;SDS011;24024;51.186;6.458;2023-07-29T01:14:19;3.55;;;1.90;;
38222;SDS011;24024;51.186;6.458;2023-07-29T01:16:55;4.45;;;2.20;;
38222;SDS011;24024;51.186;6.458;2023-07-29T01:20:14;5.00;;;2.20;;
38222;SDS011;24024;51.186;6.458;2023-07-29T01:22:21;2.90;;;2.00;;
38222;SDS011;24024;51.186;6.458;2023-07-29T01:24:50;5.60;;;2.50;;
38222;SDS011;24024;51.186;6.458;2023-07-29T01:27:17;4.47;;;2.45;;
38222;SDS011;24024;51.186;6.458;2023-07-29T01:29:43;5.10;;;2.83;;
38222;SDS011;24024;51.186;6.458;2023-07-29T01:32:14;9.93;;;4.65;;
38222;SDS011;24024;51.186;6.458;2023-07-29T01:34:48;9.15;;;4.75;;
38222;SDS011;24024;51.186;6.458;2023-07-29T01:37:25;7.20;;;4.35;;
38222;SDS011;24024;51.186;6.458;2023-07-29T01:39:55;7.43;;;3.95;;
38222;SDS011;24024;51.186;6.458;2023-07-29T01:42:25;7.50;;;3.30;;
38222;SDS011;24024;51.186;6.458;2023-07-29T01:44:55;4.90;;;2.63;;
38222;SDS011;24024;51.186;6.458;2023-07-29T01:47:25;4.00;;;2.33;;
38222;SDS011;24024;51.186;6.458;2023-07-29T01:49:52;6.43;;;2.65;;
38222;SDS011;24024;51.186;6.458;2023-07-29T01:52:19;4.68;;;2.60;;
38222;SDS011;24024;51.186;6.458;2023-07-29T01:54:46;5.45;;;2.50;;
38222;SDS011;24024;51.186;6.458;2023-07-29T01:57:17;4.07;;;2.53;;
38222;SDS011;24024;51.186;6.458;2023-07-29T01:59:46;5.47;;;2.03;;
38222;SDS011;24024;51.186;6.458;2023-07-29T02:02:14;3.03;;;1.70;;
38222;SDS011;24024;51.186;6.458;2023-07-29T02:04:40;4.10;;;1.92;;
38222;SDS011;24024;51.186;6.458;2023-07-29T02:07:11;5.57;;;1.77;;
38222;SDS011;24024;51.186;6.458;2023-07-29T02:09:42;4.13;;;1.92;;
38222;SDS011;24024;51.186;6.458;2023-07-29T02:12:09;3.20;;;1.70;;
38222;SDS011;24024;51.186;6.458;2023-07-29T02:14:39;3.45;;;1.80;;
38222;SDS011;24024;51.186;6.458;2023-07-29T02:17:08;2.90;;;1.60;;
38222;SDS011;24024;51.186;6.458;2023-07-29T02:19:36;3.45;;;1.80;;
38222;SDS011;24024;51.186;6.458;2023-07-29T02:22:03;5.50;;;2.20;;
38222;SDS011;24024;51.186;6.458;2023-07-29T02:24:30;4.60;;;2.58;;
38222;SDS011;24024;51.186;6.458;2023-07-29T02:26:57;5.00;;;2.42;;
38222;SDS011;24024;51.186;6.458;2023-07-29T02:29:26;5.03;;;2.58;;
38222;SDS011;24024;51.186;6.458;2023-07-29T02:31:56;8.50;;;3.33;;
38222;SDS011;24024;51.186;6.458;2023-07-29T02:34:22;8.95;;;3.83;;
38222;SDS011;24024;51.186;6.458;2023-07-29T02:36:49;6.68;;;3.50;;
38222;SDS011;24024;51.186;6.458;2023-07-29T02:39:18;5.50;;;3.10;;
38222;SDS011;24024;51.186;6.458;2023-07-29T02:41:45;9.07;;;2.95;;
38222;SDS011;24024;51.186;6.458;2023-07-29T02:44:14;7.55;;;3.53;;
38222;SDS011;24024;51.186;6.458;2023-07-29T02:46:41;5.63;;;2.60;;
38222;SDS011;24024;51.186;6.458;2023-07-29T02:49:08;4.72;;;2.78;;
38222;SDS011;24024;51.186;6.458;2023-07-29T02:51:37;5.63;;;2.50;;
38222;SDS011;24024;51.186;6.458;2023-07-29T02:54:04;5.47;;;2.33;;
38222;SDS011;24024;51.186;6.458;2023-07-29T02:56:31;4.43;;;2.03;;
38222;SDS011;24024;51.186;6.458;2023-07-29T02:58:58;4.07;;;2.30;;
38222;SDS011;24024;51.186;6.458;2023-07-29T03:01:24;4.18;;;2.50;;
38222;SDS011;24024;51.186;6.458;2023-07-29T03:03:51;5.13;;;2.17;;
38222;SDS011;24024;51.186;6.458;2023-07-29T03:06:18;4.65;;;2.40;;
38222;SDS011;24024;51.186;6.458;2023-07-29T03:08:45;4.85;;;2.97;;
38222;SDS011;24024;51.186;6.458;2023-07-29T03:11:14;3.75;;;2.13;;
38222;SDS011;24024;51.186;6.458;2023-07-29T03:13:42;4.00;;;2.72;;
38222;SDS011;24024;51.186;6.458;2023-07-29T03:16:13;4.75;;;2.80;;
38222;SDS011;24024;51.186;6.458;2023-07-29T03:18:44;3.67;;;2.70;;
38222;SDS011;24024;51.186;6.458;2023-07-29T03:21:16;8.63;;;3.25;;
38222;SDS011;24024;51.186;6.458;2023-07-29T03:23:45;4.72;;;2.95;;
38222;SDS011;24024;51.186;6.458;2023-07-29T03:26:15;3.92;;;3.00;;
38222;SDS011;24024;51.186;6.458;2023-07-29T03:28:44;5.35;;;2.92;;
38222;SDS011;24024;51.186;6.458;2023-07-29T03:31:13;8.68;;;3.20;;
38222;SDS011;24024;51.186;6.458;2023-07-29T03:33:42;5.18;;;3.17;;
38222;SDS011;24024;51.186;6.458;2023-07-29T03:36:12;4.95;;;3.25;;
38222;SDS011;24024;51.186;6.458;2023-07-29T03:38:38;5.15;;;2.90;;
38222;SDS011;24024;51.186;6.458;2023-07-29T03:41:08;5.07;;;3.17;;
38222;SDS011;24024;51.186;6.458;2023-07-29T03:43:35;5.78;;;3.25;;
38222;SDS011;24024;51.186;6.458;2023-07-29T03:46:02;5.53;;;3.13;;
38222;SDS011;24024;51.186;6.458;2023-07-29T03:48:28;5.03;;;3.00;;
38222;SDS011;24024;51.186;6.458;2023-07-29T03:50:57;5.15;;;3.20;;
38222;SDS011;24024;51.186;6.458;2023-07-29T03:53:24;4.70;;;3.00;;
38222;SDS011;24024;51.186;6.458;2023-07-29T03:55:53;4.78;;;3.05;;
38222;SDS011;24024;51.186;6.458;2023-07-29T03:58:19;5.35;;;2.85;;
38222;SDS011;24024;51.186;6.458;2023-07-29T04:00:49;5.57;;;3.10;;
38222;SDS011;24024;51.186;6.458;2023-07-29T04:03:15;5.53;;;3.03;;
38222;SDS011;24024;51.186;6.458;2023-07-29T04:05:42;4.90;;;2.95;;
38222;SDS011;24024;51.186;6.458;2023-07-29T04:08:11;5.60;;;3.00;;
38222;SDS011;24024;51.186;6.458;2023-07-29T04:10:38;5.07;;;2.80;;
38222;SDS011;24024;51.186;6.458;2023-07-29T04:13:04;5.88;;;2.70;;
38222;SDS011;24024;51.186;6.458;2023-07-29T04:15:31;6.60;;;3.20;;
38222;SDS011;24024;51.186;6.458;2023-07-29T04:18:01;6.20;;;3.10;;
38222;SDS011;24024;51.186;6.458;2023-07-29T04:20:27;4.28;;;2.35;;
38222;SDS011;24024;51.186;6.458;2023-07-29T04:22:55;6.10;;;2.80;;
38222;SDS011;24024;51.186;6.458;2023-07-29T04:25:22;3.95;;;2.70;;
38222;SDS011;24024;51.186;6.458;2023-07-29T04:27:48;7.07;;;3.05;;
38222;SDS011;24024;51.186;6.458;2023-07-29T04:30:15;5.32;;;2.85;;
38222;SDS011;24024;51.186;6.458;2023-07-29T04:32:42;5.45;;;2.90;;
38222;SDS011;24024;51.186;6.458;2023-07-29T04:35:17;4.47;;;2.40;;
38222;SDS011;24024;51.186;6.458;2023-07-29T04:37:43;6.05;;;2.80;;
38222;SDS011;24024;51.186;6.458;2023-07-29T04:40:11;4.80;;;2.90;;
38222;SDS011;24024;51.186;6.458;2023-07-29T04:42:40;6.88;;;3.00;;
38222;SDS011;24024;51.186;6.458;2023-07-29T04:45:07;6.03;;;3.13;;
38222;SDS011;24024;51.186;6.458;2023-07-29T04:47:36;5.68;;;2.80;;
38222;SDS011;24024;51.186;6.458;2023-07-29T04:50:08;5.32;;;3.08;;
38222;SDS011;24024;51.186;6.458;2023-07-29T04:52:37;7.90;;;2.95;;
38222;SDS011;24024;51.186;6.458;2023-07-29T04:55:04;5.95;;;2.80;;
38222;SDS011;24024;51.186;6.458;2023-07-29T04:57:31;4.13;;;2.85;;
38222;SDS011;24024;51.186;6.458;2023-07-29T04:59:58;4.53;;;3.05;;
38222;SDS011;24024;51.186;6.458;2023-07-29T05:02:27;5.55;;;2.80;;
38222;SDS011;24024;51.186;6.458;2023-07-29T05:04:56;5.00;;;2.70;;
38222;SDS011;24024;51.186;6.458;2023-07-29T05:07:25;4.05;;;2.58;;
38222;SDS011;24024;51.186;6.458;2023-07-29T05:09:52;7.05;;;3.20;;
38222;SDS011;24024;51.186;6.458;2023-07-29T05:12:19;5.22;;;3.70;;
38222;SDS011;24024;51.186;6.458;2023-07-29T05:14:46;6.60;;;3.47;;
38222;SDS011;24024;51.186;6.458;2023-07-29T05:17:13;6.93;;;3.50;;
38222;SDS011;24024;51.186;6.458;2023-07-29T05:19:39;5.32;;;3.63;;
38222;SDS011;24024;51.186;6.458;2023-07-29T05:22:06;4.43;;;2.50;;
38222;SDS011;24024;51.186;6.458;2023-07-29T05:24:33;7.57;;;2.67;;
38222;SDS011;24024;51.186;6.458;2023-07-29T05:27:02;4.47;;;2.65;;
38222;SDS011;24024;51.186;6.458;2023-07-29T05:29:31;8.00;;;2.60;;
38222;SDS011;24024;51.186;6.458;2023-07-29T05:31:58;6.22;;;2.88;;
38222;SDS011;24024;51.186;6.458;2023-07-29T05:34:27;4.22;;;2.58;;
38222;SDS011;24024;51.186;6.458;2023-07-29T05:36:56;5.30;;;2.20;;
38222;SDS011;24024;51.186;6.458;2023-07-29T05:39:28;3.58;;;2.58;;
38222;SDS011;24024;51.186;6.458;2023-07-29T05:41:55;5.35;;;2.35;;
38222;SDS011;24024;51.186;6.458;2023-07-29T05:44:24;5.90;;;2.15;;
38222;SDS011;24024;51.186;6.458;2023-07-29T05:46:51;5.07;;;2.60;;
38222;SDS011;24024;51.186;6.458;2023-07-29T05:49:17;4.95;;;2.20;;
38222;SDS011;24024;51.186;6.458;2023-07-29T05:51:44;3.38;;;1.95;;
38222;SDS011;24024;51.186;6.458;2023-07-29T05:54:13;4.65;;;1.95;;
38222;SDS011;24024;51.186;6.458;2023-07-29T05:56:40;3.33;;;1.90;;
38222;SDS011;24024;51.186;6.458;2023-07-29T05:59:07;2.90;;;1.63;;
38222;SDS011;24024;51.186;6.458;2023-07-29T06:01:36;4.05;;;1.90;;
38222;SDS011;24024;51.186;6.458;2023-07-29T06:04:05;4.47;;;1.90;;
38222;SDS011;24024;51.186;6.458;2023-07-29T06:06:36;3.45;;;1.85;;
38222;SDS011;24024;51.186;6.458;2023-07-29T06:09:03;4.97;;;1.70;;
38222;SDS011;24024;51.186;6.458;2023-07-29T06:11:30;2.40;;;1.60;;
38222;SDS011;24024;51.186;6.458;2023-07-29T06:13:59;3.53;;;1.77;;
38222;SDS011;24024;51.186;6.458;2023-07-29T06:16:26;3.05;;;1.70;;
38222;SDS011;24024;51.186;6.458;2023-07-29T06:18:58;3.63;;;1.80;;
38222;SDS011;24024;51.186;6.458;2023-07-29T06:21:27;6.10;;;1.95;;
38222;SDS011;24024;51.186;6.458;2023-07-29T06:23:54;3.08;;;2.00;;
38222;SDS011;24024;51.186;6.458;2023-07-29T06:26:23;4.65;;;1.95;;
38222;SDS011;24024;51.186;6.458;2023-07-29T06:28:49;4.47;;;2.20;;
38222;SDS011;24024;51.186;6.458;2023-07-29T06:31:19;3.28;;;2.20;;
38222;SDS011;24024;51.186;6.458;2023-07-29T06:33:46;6.25;;;2.67;;
38222;SDS011;24024;51.186;6.458;2023-07-29T06:36:12;5.35;;;2.50;;
38222;SDS011;24024;51.186;6.458;2023-07-29T06:38:42;4.07;;;2.30;;
38222;SDS011;24024;51.186;6.458;2023-07-29T06:41:09;4.00;;;2.42;;
38222;SDS011;24024;51.186;6.458;2023-07-29T06:43:41;6.45;;;2.92;;
38222;SDS011;24024;51.186;6.458;2023-07-29T06:46:10;5.50;;;2.80;;
38222;SDS011;24024;51.186;6.458;2023-07-29T06:48:39;5.38;;;2.42;;
38222;SDS011;24024;51.186;6.458;2023-07-29T06:51:06;3.95;;;2.30;;
38222;SDS011;24024;51.186;6.458;2023-07-29T06:53:33;3.80;;;1.90;;
38222;SDS011;24024;51.186;6.458;2023-07-29T06:56:00;5.93;;;2.00;;
38222;SDS011;24024;51.186;6.458;2023-07-29T06:58:29;3.47;;;1.85;;
38222;SDS011;24024;51.186;6.458;2023-07-29T07:00:56;5.07;;;2.30;;
38222;SDS011;24024;51.186;6.458;2023-07-29T07:03:23;3.55;;;1.60;;
38222;SDS011;24024;51.186;6.458;2023-07-29T07:05:50;3.85;;;2.00;;
38222;SDS011;24024;51.186;6.458;2023-07-29T07:08:19;2.80;;;1.50;;
38222;SDS011;24024;51.186;6.458;2023-07-29T07:10:48;6.40;;;1.70;;
38222;SDS011;24024;51.186;6.458;2023-07-29T07:13:15;5.03;;;1.80;;
38222;SDS011;24024;51.186;6.458;2023-07-29T07:15:44;2.95;;;1.77;;
38222;SDS011;24024;51.186;6.458;2023-07-29T07:18:11;3.65;;;1.70;;
38222;SDS011;24024;51.186;6.458;2023-07-29T07:20:40;2.33;;;1.33;;
38222;SDS011;24024;51.186;6.458;2023-07-29T07:23:07;2.83;;;1.40;;
38222;SDS011;24024;51.186;6.458;2023-07-29T07:25:37;4.53;;;1.50;;
38222;SDS011;24024;51.186;6.458;2023-07-29T07:28:06;2.65;;;1.40;;
38222;SDS011;24024;51.186;6.458;2023-07-29T07:30:33;2.67;;;1.52;;
38222;SDS011;24024;51.186;6.458;2023-07-29T07:33:00;4.47;;;1.60;;
38222;SDS011;24024;51.186;6.458;2023-07-29T07:35:27;3.38;;;1.42;;
38222;SDS011;24024;51.186;6.458;2023-07-29T07:37:58;2.22;;;1.20;;
38222;SDS011;24024;51.186;6.458;2023-07-29T07:40:30;3.22;;;1.40;;
38222;SDS011;24024;51.186;6.458;2023-07-29T07:42:57;3.60;;;1.50;;
38222;SDS011;24024;51.186;6.458;2023-07-29T07:45:24;3.80;;;1.80;;
38222;SDS011;24024;51.186;6.458;2023-07-29T07:47:53;3.05;;;1.60;;
38222;SDS011;24024;51.186;6.458;2023-07-29T07:50:20;3.30;;;1.80;;
38222;SDS011;24024;51.186;6.458;2023-07-29T07:52:47;2.90;;;1.35;;
38222;SDS011;24024;51.186;6.458;2023-07-29T07:55:16;4.88;;;1.70;;
38222;SDS011;24024;51.186;6.458;2023-07-29T07:57:43;3.50;;;1.50;;
38222;SDS011;24024;51.186;6.458;2023-07-29T08:00:13;3.50;;;1.33;;
38222;SDS011;24024;51.186;6.458;2023-07-29T08:02:43;2.40;;;1.15;;
38222;SDS011;24024;51.186;6.458;2023-07-29T08:05:10;3.00;;;1.40;;
38222;SDS011;24024;51.186;6.458;2023-07-29T08:07:37;2.97;;;1.40;;
38222;SDS011;24024;51.186;6.458;2023-07-29T08:10:06;3.45;;;1.17;;
38222;SDS011;24024;51.186;6.458;2023-07-29T08:12:35;2.30;;;1.23;;
38222;SDS011;24024;51.186;6.458;2023-07-29T08:15:02;2.20;;;1.15;;
38222;SDS011;24024;51.186;6.458;2023-07-29T08:17:31;3.55;;;1.38;;
38222;SDS011;24024;51.186;6.458;2023-07-29T08:19:58;3.22;;;1.20;;
38222;SDS011;24024;51.186;6.458;2023-07-29T08:22:25;2.30;;;1.10;;
38222;SDS011;24024;51.186;6.458;2023-07-29T08:24:54;2.28;;;1.27;;
38222;SDS011;24024;51.186;6.458;2023-07-29T08:27:25;2.92;;;1.20;;
38222;SDS011;24024;51.186;6.458;2023-07-29T08:29:54;5.13;;;1.67;;
38222;SDS011;24024;51.186;6.458;2023-07-29T08:32:21;3.15;;;1.15;;
38222;SDS011;24024;51.186;6.458;2023-07-29T08:34:48;2.60;;;1.30;;
38222;SDS011;24024;51.186;6.458;2023-07-29T08:37:14;3.58;;;1.10;;
38222;SDS011;24024;51.186;6.458;2023-07-29T08:39:41;2.17;;;1.00;;
38222;SDS011;24024;51.186;6.458;2023-07-29T08:42:11;2.72;;;1.27;;
38222;SDS011;24024;51.186;6.458;2023-07-29T08:44:42;3.35;;;1.08;;
38222;SDS011;24024;51.186;6.458;2023-07-29T08:47:11;3.65;;;1.23;;
38222;SDS011;24024;51.186;6.458;2023-07-29T08:49:40;3.15;;;1.52;;
38222;SDS011;24024;51.186;6.458;2023-07-29T08:52:07;3.97;;;1.20;;
38222;SDS011;24024;51.186;6.458;2023-07-29T08:54:35;2.17;;;1.20;;
38222;SDS011;24024;51.186;6.458;2023-07-29T08:57:06;3.72;;;1.30;;
38222;SDS011;24024;51.186;6.458;2023-07-29T08:59:37;3.20;;;1.40;;
38222;SDS011;24024;51.186;6.458;2023-07-29T09:02:05;5.03;;;1.20;;
38222;SDS011;24024;51.186;6.458;2023-07-29T09:04:32;2.83;;;1.30;;
38222;SDS011;24024;51.186;6.458;2023-07-29T09:06:59;2.95;;;1.30;;
38222;SDS011;24024;51.186;6.458;2023-07-29T09:09:27;3.47;;;1.42;;
38222;SDS011;24024;51.186;6.458;2023-07-29T09:11:56;4.05;;;1.30;;
38222;SDS011;24024;51.186;6.458;2023-07-29T09:14:23;2.42;;;1.30;;
38222;SDS011;24024;51.186;6.458;2023-07-29T09:16:50;4.25;;;2.08;;
38222;SDS011;24024;51.186;6.458;2023-07-29T09:19:20;3.45;;;1.50;;
38222;SDS011;24024;51.186;6.458;2023-07-29T09:21:46;2.58;;;1.20;;
38222;SDS011;24024;51.186;6.458;2023-07-29T09:24:16;2.67;;;1.67;;
38222;SDS011;24024;51.186;6.458;2023-07-29T09:26:50;3.58;;;1.50;;
38222;SDS011;24024;51.186;6.458;2023-07-29T09:29:21;3.40;;;1.20;;
38222;SDS011;24024;51.186;6.458;2023-07-29T09:31:51;3.35;;;1.23;;
38222;SDS011;24024;51.186;6.458;2023-07-29T09:34:17;5.68;;;1.40;;
38222;SDS011;24024;51.186;6.458;2023-07-29T09:36:47;2.80;;;1.20;;
38222;SDS011;24024;51.186;6.458;2023-07-29T09:39:19;2.78;;;1.17;;
38222;SDS011;24024;51.186;6.458;2023-07-29T09:41:54;2.92;;;1.67;;
38222;SDS011;24024;51.186;6.458;2023-07-29T09:44:23;2.28;;;1.30;;
38222;SDS011;24024;51.186;6.458;2023-07-29T09:46:50;3.83;;;1.27;;
38222;SDS011;24024;51.186;6.458;2023-07-29T09:49:17;2.50;;;1.20;;
38222;SDS011;24024;51.186;6.458;2023-07-29T09:51:46;2.50;;;1.20;;
38222;SDS011;24024;51.186;6.458;2023-07-29T09:54:15;5.55;;;1.38;;
38222;SDS011;24024;51.186;6.458;2023-07-29T09:56:45;3.33;;;1.33;;
38222;SDS011;24024;51.186;6.458;2023-07-29T09:59:13;2.03;;;1.17;;
38222;SDS011;24024;51.186;6.458;2023-07-29T10:01:45;2.75;;;1.50;;
38222;SDS011;24024;51.186;6.458;2023-07-29T10:04:14;4.85;;;2.30;;
38222;SDS011;24024;51.186;6.458;2023-07-29T10:06:42;2.85;;;1.35;;
38222;SDS011;24024;51.186;6.458;2023-07-29T10:09:10;3.10;;;1.40;;
38222;SDS011;24024;51.186;6.458;2023-07-29T10:11:40;2.15;;;1.15;;
38222;SDS011;24024;51.186;6.458;2023-07-29T10:14:13;5.25;;;1.30;;
38222;SDS011;24024;51.186;6.458;2023-07-29T10:16:40;2.55;;;1.27;;
38222;SDS011;24024;51.186;6.458;2023-07-29T10:19:11;2.30;;;1.30;;
38222;SDS011;24024;51.186;6.458;2023-07-29T10:21:40;2.33;;;1.27;;
38222;SDS011;24024;51.186;6.458;2023-07-29T10:24:15;2.72;;;1.10;;
38222;SDS011;24024;51.186;6.458;2023-07-29T10:26:45;3.55;;;1.40;;
38222;SDS011;24024;51.186;6.458;2023-07-29T10:29:13;2.78;;;1.15;;
38222;SDS011;24024;51.186;6.458;2023-07-29T10:31:44;2.45;;;1.30;;
38222;SDS011;24024;51.186;6.458;2023-07-29T10:34:14;2.10;;;1.02;;
38222;SDS011;24024;51.186;6.458;2023-07-29T10:36:41;2.20;;;1.35;;
38222;SDS011;24024;51.186;6.458;2023-07-29T10:39:13;2.75;;;1.20;;
38222;SDS011;24024;51.186;6.458;2023-07-29T10:42:00;4.35;;;1.30;;
38222;SDS011;24024;51.186;6.458;2023-07-29T10:47:13;3.95;;;1.20;;
38222;SDS011;24024;51.186;6.458;2023-07-29T10:49:56;3.63;;;1.02;;
38222;SDS011;24024;51.186;6.458;2023-07-29T10:55:04;2.47;;;1.23;;
38222;SDS011;24024;51.186;6.458;2023-07-29T10:57:55;3.85;;;1.25;;
38222;SDS011;24024;51.186;6.458;2023-07-29T11:00:36;2.53;;;1.05;;
38222;SDS011;24024;51.186;6.458;2023-07-29T11:03:03;3.10;;;1.13;;
38222;SDS011;24024;51.186;6.458;2023-07-29T11:05:45;3.42;;;1.27;;
38222;SDS011;24024;51.186;6.458;2023-07-29T11:08:27;4.63;;;1.40;;
38222;SDS011;24024;51.186;6.458;2023-07-29T11:13:32;2.35;;;1.30;;
38222;SDS011;24024;51.186;6.458;2023-07-29T11:16:00;5.85;;;1.35;;
38222;SDS011;24024;51.186;6.458;2023-07-29T11:18:28;2.78;;;1.30;;
38222;SDS011;24024;51.186;6.458;2023-07-29T11:20:57;2.80;;;1.13;;
38222;SDS011;24024;51.186;6.458;2023-07-29T11:23:29;4.18;;;1.90;;
38222;SDS011;24024;51.186;6.458;2023-07-29T11:25:58;3.35;;;1.70;;
38222;SDS011;24024;51.186;6.458;2023-07-29T11:28:25;3.17;;;1.50;;
38222;SDS011;24024;51.186;6.458;2023-07-29T11:30:55;3.45;;;1.50;;
38222;SDS011;24024;51.186;6.458;2023-07-29T11:33:24;3.22;;;1.63;;
38222;SDS011;24024;51.186;6.458;2023-07-29T11:35:54;3.50;;;1.70;;
38222;SDS011;24024;51.186;6.458;2023-07-29T11:38:21;4.88;;;2.00;;
38222;SDS011;24024;51.186;6.458;2023-07-29T11:41:01;2.72;;;1.50;;
38222;SDS011;24024;51.186;6.458;2023-07-29T11:43:30;4.97;;;1.90;;
38222;SDS011;24024;51.186;6.458;2023-07-29T11:46:02;3.83;;;1.45;;
38222;SDS011;24024;51.186;6.458;2023-07-29T11:48:32;3.70;;;1.70;;
38222;SDS011;24024;51.186;6.458;2023-07-29T11:51:04;4.07;;;1.85;;
38222;SDS011;24024;51.186;6.458;2023-07-29T11:53:31;4.15;;;2.65;;
38222;SDS011;24024;51.186;6.458;2023-07-29T11:56:02;3.35;;;1.40;;
38222;SDS011;24024;51.186;6.458;2023-07-29T11:58:30;2.33;;;1.30;;
38222;SDS011;24024;51.186;6.458;2023-07-29T12:01:00;2.78;;;1.42;;
38222;SDS011;24024;51.186;6.458;2023-07-29T12:03:30;2.47;;;1.30;;
38222;SDS011;24024;51.186;6.458;2023-07-29T12:05:57;4.20;;;1.55;;
38222;SDS011;24024;51.186;6.458;2023-07-29T12:08:26;2.40;;;1.27;;
38222;SDS011;24024;51.186;6.458;2023-07-29T12:10:56;4.50;;;1.63;;
38222;SDS011;24024;51.186;6.458;2023-07-29T12:13:25;2.50;;;1.25;;
38222;SDS011;24024;51.186;6.458;2023-07-29T12:16:00;2.38;;;1.15;;
38222;SDS011;24024;51.186;6.458;2023-07-29T12:18:33;2.33;;;1.20;;
38222;SDS011;24024;51.186;6.458;2023-07-29T12:21:00;2.50;;;1.35;;
38222;SDS011;24024;51.186;6.458;2023-07-29T12:23:27;2.30;;;1.27;;
38222;SDS011;24024;51.186;6.458;2023-07-29T12:25:56;2.78;;;1.30;;
38222;SDS011;24024;51.186;6.458;2023-07-29T12:28:24;2.88;;;1.60;;
38222;SDS011;24024;51.186;6.458;2023-07-29T12:30:55;2.85;;;1.60;;
38222;SDS011;24024;51.186;6.458;2023-07-29T12:33:32;4.45;;;2.03;;
38222;SDS011;24024;51.186;6.458;2023-07-29T12:36:05;3.38;;;1.40;;
38222;SDS011;24024;51.186;6.458;2023-07-29T12:38:31;3.90;;;1.83;;
38222;SDS011;24024;51.186;6.458;2023-07-29T12:40:58;2.75;;;1.40;;
38222;SDS011;24024;51.186;6.458;2023-07-29T12:43:28;3.75;;;1.40;;
38222;SDS011;24024;51.186;6.458;2023-07-29T12:45:56;2.58;;;1.52;;
38222;SDS011;24024;51.186;6.458;2023-07-29T12:48:23;2.67;;;1.50;;
38222;SDS011;24024;51.186;6.458;2023-07-29T12:50:52;5.22;;;1.40;;
38222;SDS011;24024;51.186;6.458;2023-07-29T12:53:21;2.92;;;1.50;;
38222;SDS011;24024;51.186;6.458;2023-07-29T12:55:48;2.70;;;1.45;;
38222;SDS011;24024;51.186;6.458;2023-07-29T12:58:15;5.20;;;1.50;;
38222;SDS011;24024;51.186;6.458;2023-07-29T13:00:45;2.78;;;1.48;;
38222;SDS011;24024;51.186;6.458;2023-07-29T13:03:14;2.78;;;1.50;;
38222;SDS011;24024;51.186;6.458;2023-07-29T13:05:44;2.65;;;1.50;;
38222;SDS011;24024;51.186;6.458;2023-07-29T13:08:13;3.42;;;1.40;;
38222;SDS011;24024;51.186;6.458;2023-07-29T13:10:39;3.45;;;1.42;;
38222;SDS011;24024;51.186;6.458;2023-07-29T13:13:06;3.55;;;1.63;;
38222;SDS011;24024;51.186;6.458;2023-07-29T13:15:33;2.55;;;1.50;;
38222;SDS011;24024;51.186;6.458;2023-07-29T13:18:00;2.95;;;1.50;;
38222;SDS011;24024;51.186;6.458;2023-07-29T13:20:27;2.97;;;1.65;;
38222;SDS011;24024;51.186;6.458;2023-07-29T13:22:57;2.20;;;1.40;;
38222;SDS011;24024;51.186;6.458;2023-07-29T13:25:24;3.00;;;1.52;;
38222;SDS011;24024;51.186;6.458;2023-07-29T13:27:50;2.58;;;1.60;;
38222;SDS011;24024;51.186;6.458;2023-07-29T13:30:17;3.20;;;1.80;;
38222;SDS011;24024;51.186;6.458;2023-07-29T13:32:46;2.40;;;1.40;;
38222;SDS011;24024;51.186;6.458;2023-07-29T13:35:15;3.78;;;2.17;;
38222;SDS011;24024;51.186;6.458;2023-07-29T13:37:47;3.45;;;1.48;;
38222;SDS011;24024;51.186;6.458;2023-07-29T13:40:13;3.75;;;1.52;;
38222;SDS011;24024;51.186;6.458;2023-07-29T13:42:40;2.78;;;1.48;;
38222;SDS011;24024;51.186;6.458;2023-07-29T13:45:07;2.53;;;1.58;;
38222;SDS011;24024;51.186;6.458;2023-07-29T13:47:34;3.22;;;1.70;;
38222;SDS011;24024;51.186;6.458;2023-07-29T13:50:02;3.05;;;1.65;;
38222;SDS011;24024;51.186;6.458;2023-07-29T13:52:29;2.45;;;1.60;;
38222;SDS011;24024;51.186;6.458;2023-07-29T13:55:01;2.90;;;1.60;;
38222;SDS011;24024;51.186;6.458;2023-07-29T13:57:28;3.65;;;1.58;;
38222;SDS011;24024;51.186;6.458;2023-07-29T13:59:59;3.53;;;1.60;;
38222;SDS011;24024;51.186;6.458;2023-07-29T14:02:29;3.67;;;1.60;;
38222;SDS011;24024;51.186;6.458;2023-07-29T14:04:57;2.30;;;1.20;;
38222;SDS011;24024;51.186;6.458;2023-07-29T14:07:24;3.72;;;2.22;;
38222;SDS011;24024;51.186;6.458;2023-07-29T14:09:51;5.07;;;3.08;;
38222;SDS011;24024;51.186;6.458;2023-07-29T14:12:20;3.00;;;1.20;;
38222;SDS011;24024;51.186;6.458;2023-07-29T14:14:49;3.08;;;1.50;;
38222;SDS011;24024;51.186;6.458;2023-07-29T14:17:16;2.30;;;1.30;;
38222;SDS011;24024;51.186;6.458;2023-07-29T14:19:43;2.55;;;1.60;;
38222;SDS011;24024;51.186;6.458;2023-07-29T14:22:09;3.38;;;1.50;;
38222;SDS011;24024;51.186;6.458;2023-07-29T14:24:39;2.83;;;1.60;;
38222;SDS011;24024;51.186;6.458;2023-07-29T14:27:05;4.07;;;1.90;;
38222;SDS011;24024;51.186;6.458;2023-07-29T14:29:32;3.90;;;2.00;;
38222;SDS011;24024;51.186;6.458;2023-07-29T14:32:01;6.07;;;2.17;;
38222;SDS011;24024;51.186;6.458;2023-07-29T14:34:30;3.03;;;1.58;;
38222;SDS011;24024;51.186;6.458;2023-07-29T14:36:59;2.45;;;1.35;;
38222;SDS011;24024;51.186;6.458;2023-07-29T14:39:28;3.03;;;1.70;;
38222;SDS011;24024;51.186;6.458;2023-07-29T14:41:55;4.25;;;1.58;;
38222;SDS011;24024;51.186;6.458;2023-07-29T14:44:22;2.53;;;1.50;;
38222;SDS011;24024;51.186;6.458;2023-07-29T14:46:49;2.85;;;1.70;;
38222;SDS011;24024;51.186;6.458;2023-07-29T14:49:15;3.03;;;1.73;;
38222;SDS011;24024;51.186;6.458;2023-07-29T14:51:49;2.33;;;1.40;;
38222;SDS011;24024;51.186;6.458;2023-07-29T14:54:16;2.70;;;1.30;;
38222;SDS011;24024;51.186;6.458;2023-07-29T14:56:43;2.63;;;1.40;;
38222;SDS011;24024;51.186;6.458;2023-07-29T14:59:10;2.55;;;1.20;;
38222;SDS011;24024;51.186;6.458;2023-07-29T15:01:37;2.03;;;1.10;;
38222;SDS011;24024;51.186;6.458;2023-07-29T15:04:04;2.65;;;1.42;;
38222;SDS011;24024;51.186;6.458;2023-07-29T15:06:30;4.00;;;1.40;;
38222;SDS011;24024;51.186;6.458;2023-07-29T15:09:01;2.78;;;1.33;;
38222;SDS011;24024;51.186;6.458;2023-07-29T15:11:27;2.83;;;1.80;;
38222;SDS011;24024;51.186;6.458;2023-07-29T15:13:54;3.38;;;1.77;;